ADVERTISEMENT

iOS app on App Store Android app on Google Play

2018 \ San Diego Beach and Bay - April 14, 2018

Notes Pages Download Filter By
  1 [2] 3 4 5 6 7 8 9 10 11 12 13 14 15 16 17 18 19




Keyword Exact  
Division

Bib First Name Last Name City State Total Time Division Division Place Overall
183 Samantha Bingaman Descanso CA 01:39:00 Female 18-24 2 101
19 Maureen Friend San Diego CA 01:39:03 Female 50-54 1 102
149 Chuck Stigers Temecula CA 01:39:04 Male 40-44 9 103
503 Kim Fruscella Murrieta CA 01:39:09 Female 30-34 8 104
677 Kaely Kantaris San Diego CA 01:39:14 Female 25-29 5 105
258 Casey Schulken Folsom CA 01:39:19 Male 30-34 18 106
139 Jonelle Gray Valencia CA 01:39:21 Female 35-39 7 107
1119 Matt Brown Parker CO 01:39:40 Male 35-39 13 108
1189 Justin Scholey San Diego CA 01:39:42 Male 25-29 19 109
22 Rachel Ainza Chula Vista CA 01:39:50 Female 25-29 6 110
329 Scott Schoeck San Diego CA 01:39:52 Male 30-34 19 111
952 David Schmidt Evergreen CO 01:39:55 Male 50-54 4 112
81 Tanya Kienlen Worland WY 01:39:55 Female 30-34 9 113
10 Margulies Dana Oceanside CA 01:40:01 Male 30-34 20 114
281 Megan Lurie San Marcos CA 01:40:21 Female 30-34 10 115
315 Mike Reed Poway CA 01:40:38 Male 45-49 13 116
331 miles king San Clemente CA 01:40:55 Male 40-44 10 117
133 Ryan Canavan San Diego CA 01:40:56 Male 35-39 14 118
341 Christopher Burns San Diego CA 01:41:05 Male 30-34 21 119
259 Emily Lipsky Baldwin NY 01:41:07 Female 30-34 11 120
93 Paul Cabello La Canada Flintridge CA 01:41:10 Male 50-54 5 121
97 Chasr Spain Lakeside CA 01:41:13 Male 25-29 20 122
79 Heather Cory Stillwater MN 01:41:18 Female 25-29 7 123
240 Dillon Christensen Santa Monica CA 01:41:19 Male 30-34 22 124
232 Michael McConnell La Canada Flt CA 01:41:22 Male 50-54 6 125
187 Nathan Anderson San Marcos CA 01:41:23 Male 30-34 23 126
278 Maui Kona Vista CA 01:41:29 Male 95 127
53 Griffin Moody San Diego CA 01:41:30 Male 18-24 7 128
267 rebecca collister Studio City CA 01:41:30 Female 40-44 4 129
202 Hector Aguilar Fresno CA 01:41:35 Male 40-44 11 130
306 Martin Alva Coronado CA 01:41:37 Male 40-44 12 131
24 Steven Brandt Carlsbad CA 01:41:43 Male 50-54 7 132
742 Omar Garcia Spring Valley CA 01:41:44 Male 40-44 13 133
305 Josh Dolin Washington DC 01:41:45 Male 25-29 21 134
80 Cassandra Detgen San Diego CA 01:42:06 Female 25-29 8 135
236 Jacobo Rodriguez Pacific Palisades CA 01:42:11 Male 45-49 14 136
95 Ivan Cooper San Diego CA 01:42:14 Male 55-59 2 137
767 Rachel Robinson Temecula CA 01:42:16 Female 35-39 8 138
448 Leanne Hoppers South Pasadena CA 01:42:17 Female 18-24 3 139
217 Morgan Stacey San Diego CA 01:42:18 Female 25-29 9 140
325 Eddy Sanchez San Diego CA 01:42:19 Male 30-34 24 141
159 Jeffrey Katz Yorba Linda CA 01:42:28 Male 60-64 1 142
150 Douglas Fremdling San Diego CA 01:42:33 Male 45-49 15 143
201 Steven Spurlock Alpine CA 01:42:33 Male 50-54 8 144
270 Eric Vogel San Diego CA 01:42:35 Male 45-49 16 145
1893 Meredith McCain Escondido CA 01:42:47 Female 35-39 9 146
129 Benjamin Covey San Diego CA 01:42:51 Male 40-44 14 147
114 Roger Wilderotter San Marcos CA 01:42:52 Male 40-44 15 148
105 Matthew Spire San Diego CA 01:42:55 Male 30-34 25 149
181 Ryan Contois La Mesa CA 01:42:55 Male 25-29 22 150
54 Megan Ducazau Placentia CA 01:43:05 Female 25-29 10 151
455 Kristine Fuentes San Diego CA 01:43:05 Female 25-29 11 152
704 Michelle Niedermaier San Diego CA 01:43:08 Female 30-34 12 153
213 Todd Goodsell Provo UT 01:43:12 Male 35-39 15 154
264 John Buckley Temecula CA 01:43:17 Male 50-54 9 155
1106 Jacob Neuberg San Diego CA 01:43:20 Male 18-24 8 156
266 Lynn Crossman Cardiff By The Sea CA 01:43:22 Female 40-44 5 157
1152 Geoff Shester Marina CA 01:43:30 Male 35-39 16 158
163 Tyler Barker San Diego CA 01:43:32 Male 25-29 23 159
383 Jordan Chapman San Mateo CA 01:43:33 Male 35-39 17 160
504 Michael Helfand Coronado CA 01:43:37 Male 45-49 17 161
38 Kenny Trejo San Diego CA 01:43:41 Male 18-24 9 162
731 Sean Nugent Santee CA 01:43:45 Male 35-39 18 163
797 Scott Thompson Indian Wells CA 01:43:45 Male 40-44 16 164
716 Raul Emmanuel Gutierrez Alvarado Ciudad de M?xico 01:43:47 Male 45-49 18 165
126 Atsushi Hinohara San Diego CA 01:43:50 Male 45-49 19 166
729 Qiner Yang Poway CA 01:43:51 Male 60-64 2 167
272 Randy Miller Maricopa AZ 01:43:51 Male 35-39 19 168
750 Andrew Huynh El Cajon CA 01:43:51 Male 25-29 24 169
49 Amy Lauer Redondo Beach CA 01:43:52 Female 35-39 10 170
253 James Bird Encinitas CA 01:43:52 Male 25-29 25 171
441 Jonathan King Santa Monica CA 01:43:52 Male 35-39 20 172
587 Adam Beier Carlsbad CA 01:44:02 Male 25-29 26 173
286 Ernest Anderson San Diego CA 01:44:02 Male 35-39 21 174
255 Yauss Agahi Tustin CA 01:44:03 Female 18-24 4 175
421 Collin Keefer Charlotte NC 01:44:08 Male 25-29 27 176
396 Jennifer Do San Diego CA 01:44:09 Female 25-29 12 177
511 Ritsuko Huth Poway CA 01:44:13 Female 45-49 1 178
4 Brent Heyl San Diego CA 01:44:14 Male 45-49 20 179
368 Doug McKay Fullerton CA 01:44:14 Male 50-54 10 180
11 Shannon Harris San Diego CA 01:44:17 Female 40-44 6 181
900 Annie Levesque New York NY 01:44:20 Female 30-34 13 182
153 Jennifer Schneider Saint Helena CA 01:44:22 Female 40-44 7 183
616 Willie Jaramillo Rio Rancho NM 01:44:24 Male 50-54 11 184
67 Ryan Rowland San Diego CA 01:44:25 Male 30-34 26 185
714 Jon Erskine Carlsbad CA 01:44:25 Male 35-39 22 186
131 Alec Dosland San Diego CA 01:44:35 Male 25-29 28 187
125 Michael Staudinger San Diego CA 01:44:37 Male 50-54 12 188
640 Trevy Kiy San Diego CA 01:44:38 Male 25-29 29 189
702 Mark Saunders El Cajon CA 01:44:51 Male 50-54 13 190
560 Gregg Fredrick Cheyenne WY 01:44:57 Male 55-59 3 191
31 Mark Marius Culver City CA 01:44:57 Male 45-49 21 192
140 Daniel Gelyana Santee CA 01:45:05 Male 35-39 23 193
432 Laura Sweeney San Diego CA 01:45:05 Female 25-29 13 194
609 Doug Gillingham Solana Beach CA 01:45:07 Male 55-59 4 195
703 Ignacio Guzman Fresno CA 01:45:08 Male 35-39 24 196
397 Jesse Dodt Tempe AZ 01:45:10 Male 25-29 30 197
635 Julie Moews Carlsbad CA 01:45:13 Female 45-49 2 198
29 Wendy Turner San Diego CA 01:45:14 Female 55-59 1 199
227 Leighann Breeze San Francisco CA 01:45:15 Female 30-34 14 200
Notes Pages Download Filter By
  1 [2] 3 4 5 6 7




Keyword Exact  
Division

Bib First Name Last Name City State Total Time Division Division Place Overall
4170 Carissa Fernandez Marana AZ 00:43:55 Female 30-34 9 101
4075 Madeline Youakim Descanso CA 00:44:00 Female 18-24 5 102
4074 Emelie Traub Descanso CA 00:44:05 Female 25-29 10 103
4436 Steven Garcia Roseville CA 00:44:08 Male 25-29 9 104
4119 Jenna Arana San Ysidro CA 00:44:20 Female 30-34 10 105
4314 Drake Singleton San Diego CA 00:44:20 Male 25-29 10 106
4315 Maya Becker San Diego CA 00:44:20 Female 18-24 6 107
4644 Lauren Cronin San Diego CA 00:44:25 Male 30-34 12 108
4103 Brian Dewoody Tucson AZ 00:44:28 Male 18-24 5 109
4639 David Nguyen San Diego CA 00:44:29 Male 35-39 7 110
4164 Brigette Brown Phoenix AZ 00:44:33 Female 45-49 5 111
4363 James Sakara San Diego CA 00:44:39 Male 45-49 3 112
4401 Ryan Booher San Diego CA 00:44:49 Male 35-39 8 113
4399 David Petri La Mesa CA 00:44:49 Male 55-59 6 114
4592 Bob Felix San Diego CA 00:44:54 Male 40-44 5 115
4719 Amber Pilch La Mesa CA 00:44:58 Female 18-24 7 116
4115 Romel Agliam El Cajon CA 00:44:59 Male 45-49 4 117
4061 Maria Huang San Diego CA 00:45:08 Female 30-34 11 118
4462 SARAH RASCHKE San Diego CA 00:45:11 Female 25-29 11 119
4543 Amy Buckley Temecula CA 00:45:16 Female 45-49 6 120
4385 Robert Dosland San Diego CA 00:45:20 Male 55-59 7 121
4565 Gilbert Boswell San Diego CA 00:45:21 Male 55-59 8 122
4077 Dmitrii Bubnov San Diego CA 00:45:27 Male 25-29 11 123
4323 Robert Chiswick San Diego CA 00:45:36 Male 35-39 9 124
4372 Rinna Dabao Tustin CA 00:45:38 Female 40-44 7 125
4253 Sara Turnley San Diego CA 00:45:39 Female 18-24 8 126
4123 Gary Iwamura San Diego CA 00:45:48 Male 60-64 3 127
4586 Anna Hunter San Diego CA 00:45:50 Female 18-24 9 128
4235 Jordan Wong San Diego CA 00:45:51 Male 35-39 10 129
4236 Wendy Wong San Diego CA 00:45:51 Female 35-39 12 130
4021 ALFREDO GONZALEZ Sacramento CA 00:45:52 Male 40-44 6 131
4712 Sabino Figueroa CA 00:45:52 Male 18-24 6 132
4095 Belle Hillenburg La Mesa CA 00:45:53 Female 18-24 10 133
4124 Kathryn Cartwright National City CA 00:45:54 Female 25-29 12 134
4569 Anai Lleverino Martinez Murrieta CA 00:45:54 Female 13-17 3 135
4570 Julia Martinez Murrieta CA 00:45:55 Female 40-44 8 136
4673 Amy Klimp Bonita CA 00:45:56 Female 45-49 7 137
4638 ERIN Nguyen San Diego CA 00:45:57 Female 35-39 13 138
4053 Debbie Mulligan Tustin CA 00:46:21 Female 50-54 7 139
4575 Erika Carmichael San Diego CA 00:46:23 Female 25-29 13 140
4149 Staci Seymour Imperial Beach CA 00:46:25 Female 35-39 14 141
4373 Rannier Revilla Tustin CA 00:46:25 Male 50-54 2 142
3526 Nina Ruedas Palm Springs CA 00:46:26 Female 30-34 12 143
4429 Mia Sarno San Diego CA 00:46:27 Female 25-29 14 144
4652 Victor Estrada Escondido CA 00:46:30 Male 35-39 11 145
3129 Dan Layson Chula Vista CA 00:46:34 Male 50-54 3 146
4653 Ana Estrada Escondido CA 00:46:34 Female 30-34 13 147
4242 Marlies Walters San Diego CA 00:46:36 Female 50-54 8 148
4355 Jasmin Limas West Covina CA 00:46:39 Female 25-29 15 149
4612 Johnny Marroquin Rialto CA 00:46:42 Male 25-29 12 150
4371 Jill Rigby La Mesa CA 00:46:42 Female 50-54 9 151
4369 ANTONIO MELCHOR Chula Vista CA 00:46:42 Male 55-59 9 152
4048 Jennifer Delacruz Long Beach CA 00:46:43 Female 35-39 15 153
4283 Daisy Rivera Moreno Valley CA 00:46:53 Female 30-34 14 154
4087 WAYNE CRANE Las Vegas NV 00:46:54 Male 40-44 7 155
4418 Sharon Balderama El Cajon CA 00:46:56 Female 40-44 9 156
4133 Monica Smith El Cajon CA 00:47:10 Female 35-39 16 157
4720 Susheel Adusumilli La Jolla CA 00:47:12 Male 18-24 7 158
4305 Katie Kavanagh San Diego CA 00:47:18 Female 30-34 15 159
4408 Blake Davis San Diego CA 00:47:19 Male 30-34 13 160
4616 Hanover Rios Torrance CA 00:47:19 Male 35-39 12 161
4365 Farrah Snyder Coronado CA 00:47:21 Female 30-34 16 162
4169 Orbelio Rodriguez San Diego CA 00:47:24 Male 45-49 5 163
4168 Jennifer Rodriguez San Diego CA 00:47:24 Female 45-49 8 164
4594 Carrie Svien Vista CA 00:47:26 Female 55-59 2 165
4681 Ferdelyn Bareng Oceanside CA 00:47:31 Female 35-39 17 166
4326 Bill Babiash Rothschild WI 00:47:33 Male 40-44 8 167
4111 Ben Bernhard Pullman WA 00:47:34 Male 30-34 14 168
4431 Kelsey Woods Ramona CA 00:47:34 Female 35-39 18 169
4102 Robert Wong San Diego CA 00:47:37 Male 50-54 4 170
4228 Rachel Petro Tucson AZ 00:47:40 Female 25-29 16 171
4389 Erica Ortega San Diego CA 00:47:42 Female 25-29 17 172
4437 MELANIE MARTIN Temecula CA 00:47:46 Female 50-54 10 173
4438 Mike Roderick Temecula CA 00:47:47 Male 55-59 10 174
4561 Amber Leigh Sands Riverside CA 00:47:48 Female 18-24 11 175
4190 Michael Olivares San Diego CA 00:47:53 Male 40-44 9 176
4118 Dawn Porter Valley Center CA 00:47:53 Female 40-44 10 177
4251 Mark Edgar Carlsbad CA 00:47:55 Male 55-59 11 178
4159 Todd Walowit Oregon WI 00:47:56 Male 55-59 12 179
4624 John Ellis Long Beach CA 00:47:58 Male 55-59 13 180
4623 Sydney Ellis Long Beach CA 00:47:58 Female 18-24 12 181
4065 Cynthia Arellano San Marcos CA 00:47:59 Female 35-39 19 182
4591 Douglas Hall Temecula CA 00:47:59 Male 45-49 6 183
4162 Stephaney Smith Pasadena CA 00:48:00 Female 35-39 20 184
4161 Sally Nguyen San Diego CA 00:48:00 Female 35-39 21 185
4566 Taylor Walsh Trabuco Canyon CA 00:48:03 Female 18-24 13 186
4567 Tori Walsh Trabuco Canyon CA 00:48:05 Female 25-29 18 187
4560 Chuck Sands Riverside CA 00:48:11 Male 45-49 7 188
4718 Meghan Cavallaro San Diego CA 00:48:13 Female 30-34 17 189
4717 Scott Domsch San Diego CA 00:48:14 Male 35-39 13 190
4136 Dan Rubin San Diego CA 00:48:19 Male 50-54 5 191
4330 CATHERINE MACABULOS San Diego CA 00:48:22 Female 35-39 22 192
4213 Benjamin Jenkins San Diego CA 00:48:29 Male 35-39 14 193
4603 Maria Campos San Ysidro CA 00:48:32 Female 35-39 23 194
4153 Marla Monk San Diego CA 00:48:32 Female 35-39 24 195
4167 Kara Monroe San Diego CA 00:48:43 Female 30-34 18 196
4610 Janet Visoso Santa Ana CA 00:48:47 Female 18-24 14 197
4287 Bruce Trites San Diego CA 00:48:51 Male 40-44 10 198
4265 Guzman Jasmine San Diego CA 00:48:51 Female 13-17 4 199
4218 Georgann Rau Temecula CA 00:48:52 Female 55-59 3 200
Notes Pages Download Filter By
  1 [2] 3 4 5 6 7 8




Keyword Exact  
Division

Bib First Name Last Name City State Total Time Division Division Place Overall
3545 Lily Duong San Diego CA 00:29:12 Female 25-29 8 101
3257 Lou Grande San Diego CA 00:29:13 Male 60-64 2 102
3104 Kat Fleischut San Diego CA 00:29:18 Female 30-34 4 103
4538 Ruth Segenet San Diego CA 00:29:23 Female 18-24 6 104
3296 Anette Svendsen Carlsbad CA 00:29:38 Female 30-34 5 105
3541 Craig Unger San Diego CA 00:29:39 Male 60-64 3 106
3441 Lucy Tafur San Marcos CA 00:29:43 Female 18-24 7 107
3295 Frank Svendsen Carlsbad CA 00:29:44 Male 65-69 2 108
3698 Mark Ngolab CA 00:29:47 Male 35-39 13 109
3125 Thuy Nguyen Pullman WA 00:29:50 Female 30-34 6 110
3580 Erin Lincoln San Diego CA 00:29:53 Female 18-24 8 111
3542 Regina Gaffney Glendora CA 00:29:53 Female 18-24 9 112
3627 Joseph DiBartolo San Diego CA 00:29:54 Male 18-24 10 113
3622 Greg Wilson San Diego CA 00:29:54 Male 30-34 6 114
3071 Gerald Spates Chula Vista CA 00:30:00 Male 45-49 5 115
3550 Dom Cutrer Las Vegas NV 00:30:12 Male 25-29 13 116
3543 Mike Pitassi Apple Valley CA 00:30:15 Male 35-39 14 117
3414 Adrian Bleuel Phoenix AZ 00:30:16 Male 18-24 11 118
3135 Erin Brown Ramona CA 00:30:23 Female 35-39 5 119
3647 Greg Schuman Oceanside CA 00:30:28 Male 25-29 14 120
3337 Yesica Jimenez Yuma AZ 00:30:37 Female 13-17 1 121
3496 Thomas Lindsay Kilmarnock 00:30:37 Male 13-17 9 122
3650 Camille Gray San Diego CA 00:30:38 Female 1-12 4 123
3688 Jerett Ayoub El Cajon CA 00:30:45 Male 13-17 10 124
3687 George Ayoub El Cajon CA 00:30:45 Male 45-49 6 125
3402 Dylan Mahr San Diego CA 00:30:46 Male 30-34 7 126
3372 Kyle Scheier Santa Paula CA 00:30:46 Male 18-24 12 127
3354 BERNARD Pantoja Moreno Valley CA 00:30:49 Male 40-44 6 128
3659 Joyce Davenport Bonita CA 00:30:50 Female 55-59 3 129
3263 Judy Hacker Phoenix AZ 00:30:50 Female 50-54 3 130
3343 Melissa Lewis Newport Beach CA 00:30:51 Female 25-29 9 131
3204 Amanda Hibbs Del Mar CA 00:30:51 Female 45-49 1 132
3683 Rene Rangel Chula Vista CA 00:30:52 Male 35-39 15 133
3605 John Baldwin San Diego CA 00:30:54 Male 35-39 16 134
3183 Andrea Paola De La Lama San Diego CA 00:31:01 Female 13-17 2 135
3184 Hector Garcia San Diego CA 00:31:01 Male 13-17 11 136
3632 Charlotte Wahl San Diego CA 00:31:04 Female 18-24 10 137
3631 Madeline Wahl San Diego CA 00:31:05 Female 18-24 11 138
3279 Michael Medofer Menifee CA 00:31:06 Male 55-59 4 139
3173 Maegen Cook San Diego CA 00:31:08 Female 25-29 10 140
3180 Jay DuPont Spring Valley CA 00:31:09 Male 25-29 15 141
3121 Matt August Carlsbad CA 00:31:10 Male 45-49 7 142
3023 Rosemarie Valero San Diego CA 00:31:15 Female 35-39 6 143
3457 Irina Medina San Diego CA 00:31:21 Female 45-49 2 144
3312 Carrie Green CA 00:31:26 Female 40-44 4 145
3523 Carol Cooper San Diego CA 00:31:27 Female 60-64 1 146
3570 Chad Wolfe San Diego CA 00:31:29 Male 40-44 7 147
3502 David Russ San Diego CA 00:31:30 Male 50-54 6 148
3210 Kai Kurth San Marcos CA 00:31:32 Male 13-17 12 149
3209 Elizabeth Kurth San Marcos CA 00:31:33 Female 50-54 4 150
3276 Monica Bayona San Diego CA 00:31:37 Female 40-44 5 151
3549 Cathy Perry San Diego CA 00:31:38 Female 65-69 1 152
3290 Alexander Ray San Diego CA 00:31:39 Male 30-34 8 153
3066 Kriss Johnson La Quinta CA 00:31:40 Male 50-54 7 154
3342 Jessica Lewis San Diego CA 00:31:41 Female 25-29 11 155
3277 Serena Bayona San Diego CA 00:31:41 Female 1-12 5 156
3278 Anthony Bayona San Diego CA 00:31:45 Male 35-39 17 157
3444 Paul Ofcharik Santee CA 00:31:46 Male 50-54 8 158
3638 Jacobo Coronel Los Angeles CA 00:31:53 Male 30-34 9 159
3547 Jessica Kulzer Clovis CA 00:31:55 Female 25-29 12 160
3468 Aiden Colyn San Diego CA 00:31:57 Male 1-12 5 161
3447 Jennifer Bailey San Diego CA 00:31:57 Female 40-44 6 162
3548 Carlee Clarke Selma CA 00:31:57 Female 18-24 12 163
4550 Mikael Buencamino Los Angeles CA 00:31:58 Male 25-29 16 164
4551 Samantha Luu Irvine CA 00:31:59 Female 25-29 13 165
3182 Lauren Federico Fresno CA 00:32:00 Female 18-24 13 166
3626 Zabrina Courtney Riverside CA 00:32:02 Female 35-39 7 167
3344 Dominique Young Los Angeles CA 00:32:03 Female 25-29 14 168
3127 Toni Krantz Alpine CA 00:32:13 Female 50-54 5 169
4667 Jed Gallimore San Diego CA 00:32:13 Male 40-44 8 170
3190 Savannah Noel Chula Vista CA 00:32:14 Female 25-29 15 171
3625 Rajan Kumar La Jolla CA 00:32:14 Male 25-29 17 172
3086 Gary Polasky Ramona CA 00:32:16 Male 60-64 4 173
3238 Cecilia Fernandez San Luis Obispo CA 00:32:18 Female 45-49 3 174
3593 Kara Jacobsen San Diego CA 00:32:23 Female 18-24 14 175
3172 MICA ALBRITTON KITA-KU OSAKA-CITY 27 00:32:24 Female 45-49 4 176
3600 Naim Abdullah San Diego CA 00:32:25 Male 35-39 18 177
3259 Brian Blacher San Diego CA 00:32:28 Male 50-54 9 178
3191 Jean Foster San Diego CA 00:32:35 Female 50-54 6 179
3286 Anna Frichtel San Diego CA 00:32:36 Female 40-44 7 180
3571 Andrea Wolfe San Diego CA 00:32:37 Female 40-44 8 181
4006 Jenny Waugh La Mesa CA 00:32:42 Female 35-39 8 182
3225 Michael Grembowiec Winchester CA 00:32:42 Male 1-12 6 183
3563 Tara Connell San Diego CA 00:32:43 Female 25-29 16 184
3442 Sarah Clusserath San Diego CA 00:32:43 Female 25-29 17 185
3307 Mari Regalado Escondido CA 00:32:45 Male 25-29 18 186
3160 Daniel Reyes Oceanside CA 00:32:48 Male 35-39 19 187
3158 Veronica Reyes Oceanside CA 00:32:48 Female 30-34 7 188
3556 Gerson Espindola West Hollywood CA 00:32:50 Male 45-49 8 189
3201 Steven Tomeck Oceanside CA 00:33:01 Male 60-64 5 190
3528 Lori Payton San Diego CA 00:33:09 Female 55-59 4 191
3040 Walter Phillips La Mesa CA 00:33:09 Male 45-49 9 192
3212 Amy Gorton El Cajon CA 00:33:11 Female 35-39 9 193
3039 Roxanne Phillips La Mesa CA 00:33:12 Female 40-44 9 194
3676 Stefanie Rangel Chula Vista CA 00:33:12 Female 30-34 8 195
3469 Stephen Smith Hemet CA 00:33:13 Male 30-34 10 196
3644 Karla Espinoza San Luis AZ 00:33:15 Female 25-29 18 197
3514 Ailin Zhang Phoenix AZ 00:33:15 Female 35-39 10 198
3513 Adham burbar Phoenix AZ 00:33:15 Male 35-39 20 199
3126 Linda Nguyen Arcadia CA 00:33:16 Female 18-24 15 200